Pontiac, Michigan
Current Conditions -  °F | °C
As of 5:53 AM on Friday 19 Dec 2014 (Local Time) from KPTK Reporting Station
Overcast Overcast  
Wind Chill: 18°   Ceiling: 1100
Heat Index: 24°   Visibility: 10mi
Dew Point: 20°   Wind: 5mph
Humidity: 84%   Direction: 350°N
Pressure: 30.21"   Gusts: NA
Location:  42.64°N, 83.29°W
Report Text: KPTK 191053Z 35004KT 10SM OVC011 M04/M07 A3021 RMK AO2 SLP242 FIRST AUGMENTED OBS OF THE DAY T10441067
Loading
Personal Weather Stations






























Interactive Weather Map New forecast layout! Learn more

10-Day Weather Forecast

Advertisements
Track Severe Weather on mobile